Time;durP1;ratioP1;P1;durP2;ratioP2;P2;SDS_P1;SDS_P2;PMS_P1;PMS_P2;Temp;Humidity;BMP_temperature;BMP_pressure;BME280_temperature;BME280_humidity;BME280_pressure;Samples;Min_cycle;Max_cycle;Signal;HPM_P1;HPM_P2
2022/08/05 00:01:40;;;;;;;5.13;4.63;;;30.70;48.80;;;;;;5024236;28;20187;-78
2022/08/05 00:04:06;;;;;;;6.10;4.20;;;30.60;48.80;;;;;;5026465;28;20214;-78
2022/08/05 00:06:32;;;;;;;4.30;3.90;;;30.50;49.10;;;;;;5019967;28;20247;-79
2022/08/05 00:08:59;;;;;;;4.63;4.30;;;30.50;49.20;;;;;;5020131;28;20821;-79
2022/08/05 00:11:24;;;;;;;5.30;4.80;;;30.40;49.70;;;;;;5025547;28;20191;-78
2022/08/05 00:13:50;;;;;;;5.13;4.73;;;30.40;49.60;;;;;;5025021;28;20450;-78
2022/08/05 00:16:16;;;;;;;6.67;4.70;;;30.30;49.80;;;;;;5022521;28;20215;-80
2022/08/05 00:18:46;;;;;;;5.20;4.10;;;30.30;50.10;;;;;;5027806;28;20231;-79
2022/08/05 00:21:13;;;;;;;5.37;4.87;;;30.20;50.10;;;;;;5025783;28;20272;-80
2022/08/05 00:23:39;;;;;;;5.50;4.17;;;30.20;50.00;;;;;;5021769;28;20527;-78
2022/08/05 00:26:06;;;;;;;4.63;4.23;;;30.20;50.20;;;;;;5025146;28;20454;-78
2022/08/05 00:28:31;;;;;;;11.23;5.50;;;30.20;50.40;;;;;;5023777;28;20470;-78
2022/08/05 00:30:57;;;;;;;4.80;4.30;;;30.30;50.50;;;;;;5024537;28;20446;-79
2022/08/05 00:33:22;;;;;;;4.70;4.30;;;30.20;50.50;;;;;;5028658;28;20251;-78
2022/08/05 00:35:48;;;;;;;9.07;4.87;;;30.20;50.60;;;;;;5038627;28;20189;-79
2022/08/05 00:38:14;;;;;;;4.43;4.03;;;30.30;50.90;;;;;;5022548;28;20187;-78
2022/08/05 00:40:48;;;;;;;9.23;4.83;;;30.40;51.80;;;;;;5027298;28;20238;-77
2022/08/05 00:43:14;;;;;;;4.47;4.03;;;30.50;52.40;;;;;;5023308;28;20677;-79
2022/08/05 00:45:39;;;;;;;4.53;4.23;;;30.50;52.70;;;;;;5023616;28;20443;-77
2022/08/05 00:48:12;;;;;;;5.60;4.87;;;30.50;52.80;;;;;;5018948;28;20208;-77
2022/08/05 00:50:40;;;;;;;4.97;4.47;;;30.60;53.20;;;;;;5023022;28;20191;-76
2022/08/05 00:53:05;;;;;;;8.33;5.03;;;30.60;53.50;;;;;;5026488;28;20417;-77
2022/08/05 00:55:31;;;;;;;4.90;3.63;;;30.60;53.90;;;;;;5019271;28;20467;-77
2022/08/05 00:57:57;;;;;;;8.50;4.87;;;30.60;54.00;;;;;;5023404;28;20611;-78
2022/08/05 01:00:22;;;;;;;5.83;4.53;;;30.60;54.40;;;;;;5020111;28;20218;-78
2022/08/05 01:02:48;;;;;;;5.17;4.67;;;30.60;54.60;;;;;;5021332;28;20234;-78
2022/08/05 01:05:14;;;;;;;9.47;5.23;;;30.50;55.00;;;;;;5018488;28;20213;-78
2022/08/05 01:07:41;;;;;;;11.23;5.57;;;30.50;55.00;;;;;;5018062;28;20750;-78
2022/08/05 01:10:11;;;;;;;7.90;4.30;;;30.50;55.10;;;;;;5020181;28;20198;-78
2022/08/05 01:12:37;;;;;;;7.03;4.53;;;30.50;55.30;;;;;;5024792;28;20471;-78
2022/08/05 01:15:07;;;;;;;7.33;4.20;;;30.50;55.50;;;;;;5022986;28;20486;-77
2022/08/05 01:17:50;;;;;;;5.90;4.23;;;30.50;55.60;;;;;;5017077;28;20455;-77
2022/08/05 01:20:43;;;;;;;5.17;4.47;;;30.50;55.80;;;;;;5015777;28;20439;-78
2022/08/05 01:23:28;;;;;;;5.97;4.70;;;30.50;55.80;;;;;;5020429;28;20594;-78
2022/08/05 01:26:17;;;;;;;5.53;4.80;;;30.40;55.90;;;;;;5022273;28;20515;-79
2022/08/05 01:28:47;;;;;;;7.70;4.97;;;30.40;56.10;;;;;;5021139;28;20421;-78
2022/08/05 01:31:43;;;;;;;5.40;4.60;;;30.40;56.30;;;;;;5027627;28;20409;-78
2022/08/05 01:34:25;;;;;;;14.73;4.33;;;30.40;56.60;;;;;;5016102;28;20454;-79
2022/08/05 01:37:02;;;;;;;4.50;4.10;;;30.30;56.50;;;;;;5024470;28;21231;-78
2022/08/05 01:39:30;;;;;;;7.07;4.50;;;30.30;56.70;;;;;;5017579;28;20880;-79
2022/08/05 01:41:58;;;;;;;7.57;6.03;;;30.30;56.70;;;;;;5019186;28;20512;-78
2022/08/05 01:44:25;;;;;;;8.03;5.10;;;30.30;56.80;;;;;;5021841;28;20510;-77
2022/08/05 01:46:52;;;;;;;6.30;5.13;;;30.30;57.00;;;;;;5022359;28;20455;-77
2022/08/05 01:49:21;;;;;;;7.33;4.90;;;30.20;57.10;;;;;;5017775;28;20464;-77
2022/08/05 01:51:48;;;;;;;6.80;5.60;;;30.20;57.20;;;;;;5021474;28;20448;-77
2022/08/05 01:54:16;;;;;;;5.47;4.70;;;30.20;57.40;;;;;;5015108;28;20415;-77
2022/08/05 01:56:42;;;;;;;5.73;5.23;;;30.20;57.70;;;;;;5017251;28;20521;-77
2022/08/05 01:59:13;;;;;;;7.50;5.20;;;30.10;57.70;;;;;;5017908;28;20410;-77
2022/08/05 02:01:40;;;;;;;7.50;5.13;;;30.10;57.90;;;;;;5030054;28;20414;-78
2022/08/05 02:04:08;;;;;;;7.83;5.30;;;30.10;58.00;;;;;;5017564;28;20471;-76
2022/08/05 02:06:34;;;;;;;5.90;5.30;;;30.10;58.20;;;;;;5014686;28;20455;-77
2022/08/05 02:09:00;;;;;;;6.00;5.50;;;30.00;58.40;;;;;;5017913;28;20448;-78
2022/08/05 02:11:36;;;;;;;12.60;5.87;;;30.00;58.50;;;;;;5019623;28;20444;-77
2022/08/05 02:14:09;;;;;;;6.60;5.53;;;30.00;58.70;;;;;;5012260;28;20195;-77
2022/08/05 02:16:49;;;;;;;6.13;5.53;;;30.00;59.50;;;;;;5015409;28;20471;-77
2022/08/05 02:19:39;;;;;;;8.70;5.77;;;30.00;59.10;;;;;;5021766;28;20439;-77
2022/08/05 02:22:11;;;;;;;6.50;5.03;;;30.00;59.40;;;;;;5015902;28;21606;-78
2022/08/05 02:24:39;;;;;;;5.33;4.90;;;29.90;59.40;;;;;;5013782;28;20561;-77
2022/08/05 02:27:08;;;;;;;8.40;5.00;;;29.90;59.50;;;;;;5017885;28;20456;-77
2022/08/05 02:29:35;;;;;;;6.70;6.07;;;29.90;59.70;;;;;;5017593;28;20814;-78
2022/08/05 02:32:03;;;;;;;8.20;5.00;;;29.90;59.90;;;;;;5021194;28;20414;-76
2022/08/05 02:34:31;;;;;;;5.90;5.20;;;29.90;60.00;;;;;;5017158;28;20431;-77
2022/08/05 02:37:01;;;;;;;6.97;5.03;;;29.90;60.00;;;;;;5017363;28;21638;-77
2022/08/05 02:39:33;;;;;;;7.43;5.20;;;29.90;60.20;;;;;;5018396;28;20446;-76
2022/08/05 02:41:59;;;;;;;11.33;5.70;;;29.90;60.40;;;;;;5020404;28;20943;-76
2022/08/05 02:44:27;;;;;;;7.10;6.00;;;29.90;60.50;;;;;;5020141;28;20882;-78
2022/08/05 02:46:56;;;;;;;9.33;6.47;;;29.90;60.70;;;;;;5017957;28;20558;-77
2022/08/05 02:49:23;;;;;;;11.90;5.40;;;29.90;61.00;;;;;;5017026;28;20438;-78
2022/08/05 02:51:50;;;;;;;8.00;6.10;;;29.80;61.20;;;;;;5016478;28;20445;-78
2022/08/05 02:54:16;;;;;;;7.00;5.50;;;29.80;61.20;;;;;;5025486;28;20417;-78
2022/08/05 02:56:42;;;;;;;6.80;6.20;;;29.80;61.50;;;;;;5020511;28;20542;-78
2022/08/05 02:59:10;;;;;;;6.27;5.70;;;29.80;61.50;;;;;;5021505;28;20421;-79
2022/08/05 03:01:39;;;;;;;7.50;6.43;;;29.80;61.50;;;;;;5017818;28;20461;-78
2022/08/05 03:04:09;;;;;;;11.53;5.90;;;29.80;61.50;;;;;;5019034;28;20457;-77
2022/08/05 03:06:36;;;;;;;7.27;5.50;;;29.80;61.60;;;;;;5022569;28;20474;-78
2022/08/05 03:09:02;;;;;;;10.90;6.10;;;29.80;61.80;;;;;;5018385;28;20608;-78
2022/08/05 03:11:28;;;;;;;8.07;5.40;;;29.70;62.20;;;;;;5022407;28;20435;-78
2022/08/05 03:13:54;;;;;;;5.73;5.23;;;29.60;62.50;;;;;;5023400;28;20491;-78
2022/08/05 03:16:20;;;;;;;5.97;5.40;;;29.60;62.40;;;;;;5021566;28;20208;-78
2022/08/05 03:18:46;;;;;;;7.10;5.40;;;29.60;62.40;;;;;;5019565;28;20196;-78
2022/08/05 03:21:12;;;;;;;5.40;4.90;;;29.60;62.20;;;;;;5020680;28;20176;-78
2022/08/05 03:23:41;;;;;;;9.10;5.70;;;29.60;62.10;;;;;;5018109;28;21002;-78
2022/08/05 03:26:07;;;;;;;6.07;5.23;;;29.60;62.50;;;;;;5023540;28;20451;-79
2022/08/05 03:28:33;;;;;;;7.23;6.07;;;29.60;62.30;;;;;;5015283;28;20538;-79
2022/08/05 03:31:01;;;;;;;7.40;5.30;;;29.60;62.30;;;;;;5022749;28;20435;-79
2022/08/05 03:33:27;;;;;;;11.67;6.20;;;29.60;62.30;;;;;;5021188;28;20832;-78
2022/08/05 03:35:55;;;;;;;7.63;5.33;;;29.50;62.30;;;;;;5023845;28;20613;-78
2022/08/05 03:38:22;;;;;;;9.33;5.07;;;29.50;62.20;;;;;;5017974;28;20432;-77
2022/08/05 03:40:47;;;;;;;12.07;6.47;;;29.50;62.60;;;;;;5019034;28;20441;-78
2022/08/05 03:43:14;;;;;;;8.87;5.20;;;29.40;62.90;;;;;;5020254;28;20463;-78
2022/08/05 03:45:40;;;;;;;5.37;4.87;;;29.30;63.50;;;;;;5023391;28;20176;-78
2022/08/05 03:48:05;;;;;;;7.53;5.13;;;29.40;63.30;;;;;;5017316;28;20434;-78
2022/08/05 03:50:54;;;;;;;7.17;5.27;;;29.30;63.80;;;;;;5020662;28;20188;-78
2022/08/05 03:54:02;;;;;;;8.87;5.63;;;29.40;64.10;;;;;;5023513;28;20198;-79
2022/08/05 03:56:48;;;;;;;6.73;5.60;;;29.40;66.00;;;;;;5033469;28;20465;-79
2022/08/05 03:59:23;;;;;;;9.13;6.30;;;29.40;66.30;;;;;;5027096;28;20443;-77
2022/08/05 04:01:50;;;;;;;10.50;5.60;;;29.40;68.40;;;;;;5023361;28;20804;-79
2022/08/05 04:04:19;;;;;;;9.80;6.23;;;29.40;68.20;;;;;;5026851;28;20473;-78
2022/08/05 04:06:46;;;;;;;10.23;5.80;;;29.40;68.20;;;;;;5020334;28;20455;-76
2022/08/05 04:09:13;;;;;;;9.53;6.47;;;29.40;68.30;;;;;;5018086;28;20492;-78
2022/08/05 04:11:39;;;;;;;8.63;6.10;;;29.40;69.80;;;;;;5023559;28;20950;-77
2022/08/05 04:14:06;;;;;;;8.97;5.90;;;29.30;69.80;;;;;;5024034;28;20443;-77
2022/08/05 04:16:34;;;;;;;7.13;5.43;;;29.20;70.10;;;;;;5021628;28;20208;-77
2022/08/05 04:19:00;;;;;;;7.63;6.07;;;29.20;70.80;;;;;;5024994;28;20474;-77
2022/08/05 04:21:26;;;;;;;10.80;5.40;;;29.00;70.90;;;;;;5023086;28;21362;-77
2022/08/05 04:23:52;;;;;;;6.90;6.20;;;29.10;71.80;;;;;;5016437;28;20463;-76
2022/08/05 04:26:18;;;;;;;11.43;6.30;;;29.00;71.50;;;;;;5018177;28;20961;-77
2022/08/05 04:28:43;;;;;;;8.60;6.73;;;28.90;72.40;;;;;;5019479;28;20862;-77
2022/08/05 04:31:09;;;;;;;8.27;6.60;;;28.80;72.10;;;;;;5019847;28;20207;-76
2022/08/05 04:33:35;;;;;;;7.30;6.03;;;28.80;72.40;;;;;;5023061;28;20208;-76
2022/08/05 04:36:00;;;;;;;9.20;6.40;;;28.70;72.90;;;;;;5021550;28;20203;-77
2022/08/05 04:38:28;;;;;;;7.63;6.83;;;28.70;73.10;;;;;;5022190;28;20211;-77
2022/08/05 04:40:53;;;;;;;6.93;6.23;;;28.60;73.20;;;;;;5026525;28;20459;-77
2022/08/05 04:43:19;;;;;;;6.77;5.90;;;28.50;72.80;;;;;;5022485;28;20282;-77
2022/08/05 04:45:45;;;;;;;6.27;5.67;;;28.60;72.90;;;;;;5026817;28;20200;-76
2022/08/05 04:48:13;;;;;;;7.40;5.20;;;28.60;71.60;;;;;;5021107;28;20497;-76
2022/08/05 04:50:41;;;;;;;5.83;4.80;;;28.50;70.20;;;;;;5025682;28;20177;-76
2022/08/05 04:53:11;;;;;;;7.07;5.20;;;28.60;70.70;;;;;;5023595;28;20523;-77
2022/08/05 04:55:37;;;;;;;6.00;5.40;;;28.50;70.00;;;;;;5023580;28;20798;-77
2022/08/05 04:58:04;;;;;;;6.47;5.10;;;28.20;70.50;;;;;;5024195;28;20980;-76
2022/08/05 05:00:33;;;;;;;6.30;4.83;;;28.10;70.70;;;;;;5014597;28;20431;-77
2022/08/05 05:03:00;;;;;;;6.60;4.83;;;27.90;70.60;;;;;;5021331;28;20444;-76
2022/08/05 05:05:25;;;;;;;5.87;5.37;;;27.80;71.40;;;;;;5023103;28;20451;-77
2022/08/05 05:07:51;;;;;;;4.77;4.40;;;27.90;70.80;;;;;;5023142;28;20470;-76
2022/08/05 05:10:17;;;;;;;5.43;4.97;;;28.00;70.50;;;;;;5028587;28;20190;-77
2022/08/05 05:12:43;;;;;;;4.90;4.50;;;28.10;70.20;;;;;;5024239;28;20682;-76
2022/08/05 05:15:09;;;;;;;4.67;4.30;;;28.20;70.80;;;;;;5026664;28;20193;-76
2022/08/05 05:17:43;;;;;;;5.10;4.60;;;28.10;70.50;;;;;;5024142;28;20225;-77
2022/08/05 05:20:10;;;;;;;5.90;4.60;;;28.00;69.20;;;;;;5024674;28;20454;-77
2022/08/05 05:22:36;;;;;;;5.20;4.70;;;28.10;69.40;;;;;;5022004;28;20533;-76
2022/08/05 05:25:02;;;;;;;6.13;4.90;;;28.20;69.40;;;;;;5026400;28;21412;-77
2022/08/05 05:27:30;;;;;;;4.90;4.10;;;28.10;69.50;;;;;;5023414;28;20480;-77
2022/08/05 05:29:55;;;;;;;5.97;4.80;;;27.90;69.60;;;;;;5021757;28;20450;-77
2022/08/05 05:32:21;;;;;;;5.60;4.17;;;27.90;70.10;;;;;;5024763;28;20510;-77
2022/08/05 05:34:47;;;;;;;11.57;4.90;;;28.00;69.40;;;;;;5023791;28;20242;-77
2022/08/05 05:37:13;;;;;;;4.83;4.43;;;28.10;68.60;;;;;;5022539;28;20223;-77
2022/08/05 05:39:39;;;;;;;6.70;3.93;;;28.10;68.50;;;;;;5030961;28;20188;-77
2022/08/05 05:42:05;;;;;;;5.27;4.60;;;28.10;69.20;;;;;;5024004;28;20442;-77
2022/08/05 05:44:31;;;;;;;9.90;5.00;;;28.10;69.40;;;;;;5033239;28;20466;-77
2022/08/05 05:46:57;;;;;;;4.37;3.90;;;28.00;69.80;;;;;;5024878;28;20200;-77
2022/08/05 05:49:22;;;;;;;4.93;4.30;;;28.00;69.60;;;;;;5020942;28;20184;-77
2022/08/05 05:51:48;;;;;;;4.80;4.40;;;27.90;69.40;;;;;;5016264;28;20439;-77
2022/08/05 05:54:14;;;;;;;5.07;4.33;;;28.00;69.40;;;;;;5020927;28;20239;-77
2022/08/05 05:56:39;;;;;;;5.13;4.63;;;28.00;68.70;;;;;;5026653;28;20263;-77
2022/08/05 05:59:05;;;;;;;5.10;4.57;;;28.00;69.50;;;;;;5024690;28;20242;-78
2022/08/05 06:01:32;;;;;;;5.20;4.70;;;28.00;69.20;;;;;;5016128;28;20238;-76
2022/08/05 06:03:58;;;;;;;8.57;4.67;;;28.00;69.60;;;;;;5029729;28;20549;-77
2022/08/05 06:06:24;;;;;;;5.73;5.10;;;28.00;70.30;;;;;;5022687;28;20538;-76
2022/08/05 06:08:49;;;;;;;6.13;4.47;;;28.10;70.30;;;;;;5024987;28;20847;-76
2022/08/05 06:11:15;;;;;;;5.73;4.97;;;28.10;70.20;;;;;;5017898;28;20651;-76
2022/08/05 06:13:41;;;;;;;5.40;4.50;;;28.10;70.40;;;;;;5024871;28;20274;-76
2022/08/05 06:16:06;;;;;;;8.30;4.40;;;28.10;69.70;;;;;;5014658;28;20242;-76
2022/08/05 06:18:32;;;;;;;6.00;4.67;;;28.10;69.20;;;;;;5024631;28;20299;-76
2022/08/05 06:20:58;;;;;;;5.43;4.93;;;27.90;69.60;;;;;;5028505;28;20186;-76
2022/08/05 06:23:23;;;;;;;5.00;4.60;;;28.00;69.90;;;;;;5027229;28;20200;-77
2022/08/05 06:25:50;;;;;;;15.20;4.53;;;28.00;69.90;;;;;;5029093;28;20484;-76
2022/08/05 06:28:15;;;;;;;5.80;5.27;;;28.00;69.90;;;;;;5027919;28;20192;-76
2022/08/05 06:30:41;;;;;;;6.90;5.20;;;27.80;69.90;;;;;;5000430;28;20451;-76
2022/08/05 06:33:07;;;;;;;6.00;5.23;;;28.00;70.10;;;;;;5028087;28;20197;-77
2022/08/05 06:35:33;;;;;;;9.90;5.37;;;27.90;70.40;;;;;;5027705;28;20212;-76
2022/08/05 06:37:59;;;;;;;8.30;5.30;;;27.80;70.80;;;;;;5024074;28;20486;-76
2022/08/05 06:40:24;;;;;;;6.27;4.27;;;27.90;70.80;;;;;;5026701;28;20176;-76
2022/08/05 06:42:50;;;;;;;7.87;4.80;;;27.90;70.70;;;;;;5032939;28;20179;-76
2022/08/05 06:45:16;;;;;;;4.83;4.30;;;28.00;70.60;;;;;;5029817;28;20185;-77
2022/08/05 06:47:41;;;;;;;5.90;4.43;;;28.10;70.50;;;;;;5032494;28;20287;-77
2022/08/05 06:50:07;;;;;;;5.90;4.80;;;28.10;69.70;;;;;;5029665;28;20184;-77
2022/08/05 06:52:33;;;;;;;8.47;3.87;;;28.10;69.90;;;;;;5028221;28;20193;-77
2022/08/05 06:54:59;;;;;;;5.50;3.80;;;28.20;69.10;;;;;;5033127;28;20422;-76
2022/08/05 06:57:25;;;;;;;4.63;4.23;;;28.20;68.80;;;;;;5027751;28;20296;-77
2022/08/05 06:59:50;;;;;;;5.43;4.60;;;28.20;68.60;;;;;;5029678;28;20189;-76
2022/08/05 07:02:16;;;;;;;4.90;4.23;;;28.20;68.40;;;;;;5023792;28;20200;-76
2022/08/05 07:04:41;;;;;;;6.63;4.40;;;28.30;68.30;;;;;;5028855;28;20224;-76
2022/08/05 07:07:07;;;;;;;4.90;4.37;;;28.30;67.30;;;;;;5030499;28;20295;-76
2022/08/05 07:09:33;;;;;;;4.73;4.37;;;28.30;67.00;;;;;;5025749;28;20184;-76
2022/08/05 07:11:58;;;;;;;5.27;4.20;;;28.30;67.50;;;;;;5024197;28;20553;-77
2022/08/05 07:17:08;;;;;;;4.10;3.70;;;28.40;65.80;;;;;;5026068;28;20265;-79
2022/08/05 07:19:34;;;;;;;5.53;3.90;;;28.50;65.40;;;;;;5024336;28;20931;-90
2022/08/05 07:22:00;;;;;;;3.93;3.50;;;28.50;64.80;;;;;;5023830;28;20212;-77
2022/08/05 07:24:26;;;;;;;4.00;3.70;;;28.40;64.70;;;;;;5028873;28;20505;-76
2022/08/05 07:26:51;;;;;;;4.10;3.80;;;28.50;65.00;;;;;;5026706;28;20201;-76
2022/08/05 07:29:17;;;;;;;4.30;4.00;;;28.40;65.40;;;;;;5018791;28;20200;-76
2022/08/05 07:31:43;;;;;;;4.83;4.10;;;28.50;65.70;;;;;;5023491;28;20707;-76
2022/08/05 07:34:08;;;;;;;6.53;4.13;;;28.50;66.10;;;;;;5026208;28;20635;-77
2022/08/05 07:36:34;;;;;;;7.47;4.43;;;28.50;65.90;;;;;;5026292;28;20770;-77
2022/08/05 07:39:05;;;;;;;4.50;4.10;;;28.50;66.50;;;;;;5024758;28;20920;-76
2022/08/05 07:41:31;;;;;;;4.40;4.03;;;28.60;66.10;;;;;;5027896;28;20181;-76
2022/08/05 07:43:58;;;;;;;5.17;4.10;;;28.60;66.10;;;;;;5028131;28;20490;-77
2022/08/05 07:46:27;;;;;;;3.90;3.60;;;28.60;65.60;;;;;;5025797;28;20456;-76
2022/08/05 07:48:58;;;;;;;3.67;3.37;;;28.70;64.90;;;;;;5023179;28;20858;-77
2022/08/05 07:51:24;;;;;;;4.90;4.27;;;28.80;64.50;;;;;;5024487;28;20481;-76
2022/08/05 07:53:50;;;;;;;5.03;4.10;;;28.80;64.00;;;;;;5023629;28;20413;-77
2022/08/05 07:56:15;;;;;;;4.80;4.17;;;28.80;64.00;;;;;;5031548;28;20947;-76
2022/08/05 07:58:41;;;;;;;4.50;3.60;;;28.90;64.10;;;;;;5026452;28;20184;-74
2022/08/05 08:01:07;;;;;;;6.83;3.97;;;29.00;63.80;;;;;;5018577;28;20192;-75
2022/08/05 08:03:33;;;;;;;4.57;4.17;;;29.00;63.20;;;;;;5021650;28;20756;-74
2022/08/05 08:05:58;;;;;;;4.53;3.80;;;29.00;63.60;;;;;;5022498;28;20557;-74
2022/08/05 08:08:24;;;;;;;4.07;3.67;;;29.00;63.90;;;;;;5021444;28;20176;-74
2022/08/05 08:10:50;;;;;;;4.37;3.80;;;29.00;63.90;;;;;;5026238;28;20267;-75
2022/08/05 08:13:15;;;;;;;5.27;4.17;;;29.00;63.90;;;;;;5021947;28;20189;-74
2022/08/05 08:15:41;;;;;;;4.07;3.77;;;29.10;63.10;;;;;;5022806;28;20227;-75
2022/08/05 08:18:07;;;;;;;4.23;3.80;;;29.20;62.70;;;;;;5020619;28;20193;-75
2022/08/05 08:20:33;;;;;;;4.30;4.00;;;29.20;62.70;;;;;;5028095;28;20657;-75
2022/08/05 08:22:59;;;;;;;6.57;4.40;;;29.20;62.90;;;;;;5027166;28;20234;-75
2022/08/05 08:25:29;;;;;;;4.70;3.90;;;29.20;62.20;;;;;;5023641;28;20181;-75
2022/08/05 08:27:55;;;;;;;3.80;3.50;;;29.30;61.70;;;;;;5024527;28;20447;-74
2022/08/05 08:30:21;;;;;;;4.57;4.17;;;29.30;61.50;;;;;;5021590;28;21005;-75
2022/08/05 08:32:46;;;;;;;4.30;3.90;;;29.40;61.40;;;;;;5025027;28;20192;-74
2022/08/05 08:35:12;;;;;;;5.30;4.20;;;29.60;60.40;;;;;;5025901;28;20537;-74
2022/08/05 08:37:38;;;;;;;3.93;3.63;;;29.50;60.10;;;;;;5025523;28;20219;-75
2022/08/05 08:40:04;;;;;;;4.00;3.60;;;29.40;60.50;;;;;;5025861;28;20212;-74
2022/08/05 08:42:32;;;;;;;4.47;4.07;;;29.60;60.70;;;;;;5028355;28;20213;-74
2022/08/05 08:44:59;;;;;;;4.70;4.30;;;29.60;60.40;;;;;;5021893;28;20581;-75
2022/08/05 08:47:26;;;;;;;5.20;3.87;;;29.70;59.70;;;;;;5029646;28;20447;-75
2022/08/05 08:49:55;;;;;;;4.30;3.70;;;29.90;59.50;;;;;;5024418;28;20450;-75
2022/08/05 08:52:29;;;;;;;4.27;3.87;;;30.10;58.60;;;;;;5015269;28;20409;-75
2022/08/05 08:54:55;;;;;;;3.80;3.43;;;30.30;58.00;;;;;;5026634;28;20470;-75
2022/08/05 08:57:21;;;;;;;5.17;4.10;;;30.40;57.60;;;;;;5024271;28;21051;-75
2022/08/05 08:59:50;;;;;;;3.80;3.50;;;30.30;57.90;;;;;;5024018;28;20434;-75
2022/08/05 09:02:18;;;;;;;4.00;3.60;;;30.40;57.80;;;;;;5022667;28;20432;-75
2022/08/05 09:04:45;;;;;;;5.20;4.10;;;30.40;57.80;;;;;;5026526;28;20475;-75
2022/08/05 09:07:12;;;;;;;5.23;4.73;;;30.40;57.60;;;;;;5029114;28;20430;-75
2022/08/05 09:09:38;;;;;;;4.60;4.20;;;30.30;57.90;;;;;;5024695;28;20440;-75
2022/08/05 09:12:08;;;;;;;4.07;3.60;;;30.40;57.90;;;;;;5026216;28;20409;-75
2022/08/05 09:14:38;;;;;;;4.10;3.70;;;30.40;57.20;;;;;;5022822;28;20436;-75
2022/08/05 09:17:06;;;;;;;4.50;3.60;;;30.40;57.20;;;;;;5024211;28;20535;-75
2022/08/05 09:19:32;;;;;;;6.80;3.87;;;30.50;57.10;;;;;;5017923;28;20443;-75
2022/08/05 09:21:58;;;;;;;4.00;3.70;;;30.40;57.20;;;;;;5024025;28;20478;-75
2022/08/05 09:24:24;;;;;;;5.07;3.30;;;30.40;57.00;;;;;;5026945;28;20224;-75
2022/08/05 09:26:51;;;;;;;3.63;3.33;;;30.30;56.70;;;;;;5023919;28;20205;-75
2022/08/05 09:29:17;;;;;;;4.10;3.70;;;30.30;57.00;;;;;;5021413;28;20203;-75
2022/08/05 09:31:43;;;;;;;3.93;3.53;;;30.30;57.00;;;;;;5022156;28;20433;-75
2022/08/05 09:34:10;;;;;;;3.83;3.53;;;30.40;56.80;;;;;;5020074;28;20787;-75
2022/08/05 09:36:51;;;;;;;4.10;3.37;;;30.50;56.20;;;;;;5022314;28;21042;-75
2022/08/05 09:39:18;;;;;;;7.17;3.80;;;30.40;56.60;;;;;;5021490;28;20450;-75
2022/08/05 09:41:57;;;;;;;5.20;3.83;;;30.40;56.70;;;;;;5025585;28;20852;-75
2022/08/05 09:44:38;;;;;;;4.13;3.73;;;30.50;56.70;;;;;;5019871;28;20560;-76
2022/08/05 09:47:15;;;;;;;3.70;3.40;;;30.40;56.40;;;;;;5022130;28;20448;-75
2022/08/05 09:49:41;;;;;;;3.83;3.43;;;30.50;56.70;;;;;;5024244;28;20439;-75
2022/08/05 09:52:27;;;;;;;4.43;4.03;;;30.60;56.50;;;;;;5019227;28;21268;-75
2022/08/05 09:54:54;;;;;;;3.90;3.60;;;30.50;56.20;;;;;;5021359;28;21230;-75
2022/08/05 09:57:40;;;;;;;3.80;3.37;;;30.40;56.40;;;;;;5017832;28;20805;-75
2022/08/05 10:00:10;;;;;;;4.30;3.40;;;30.50;56.30;;;;;;5022419;28;20484;-75
2022/08/05 10:02:44;;;;;;;3.83;3.53;;;30.50;56.40;;;;;;5016129;28;20827;-75
2022/08/05 10:05:19;;;;;;;4.40;3.57;;;30.60;56.20;;;;;;5026187;28;20457;-75
2022/08/05 10:07:52;;;;;;;5.13;3.83;;;30.70;56.40;;;;;;5033414;28;20458;-75
2022/08/05 10:10:23;;;;;;;4.23;3.93;;;30.70;56.50;;;;;;5025761;28;20426;-75
2022/08/05 10:12:55;;;;;;;3.70;3.40;;;30.70;56.80;;;;;;5018088;28;20435;-75
2022/08/05 10:15:26;;;;;;;4.23;3.50;;;30.70;57.10;;;;;;5025658;28;20448;-75
2022/08/05 10:18:10;;;;;;;4.17;3.83;;;30.80;56.50;;;;;;5027894;28;20417;-75
2022/08/05 10:20:52;;;;;;;3.93;3.30;;;30.70;56.60;;;;;;5025060;28;21140;-75
2022/08/05 10:23:24;;;;;;;3.80;3.47;;;30.80;56.20;;;;;;5023707;28;20564;-75
2022/08/05 10:25:50;;;;;;;4.03;3.73;;;30.80;56.30;;;;;;5018448;28;20864;-75
2022/08/05 10:28:17;;;;;;;5.90;3.50;;;30.80;56.40;;;;;;5021926;28;20550;-74
2022/08/05 10:30:43;;;;;;;4.23;3.67;;;30.80;56.60;;;;;;5025872;28;20258;-75
2022/08/05 10:33:08;;;;;;;3.73;3.43;;;30.90;56.80;;;;;;5022120;28;20427;-75
2022/08/05 10:35:35;;;;;;;4.60;4.00;;;31.00;56.70;;;;;;5023957;28;20976;-75
2022/08/05 10:38:02;;;;;;;8.60;3.37;;;31.00;56.40;;;;;;5023367;28;20219;-75
2022/08/05 10:40:44;;;;;;;3.83;3.53;;;30.90;56.20;;;;;;5017297;28;20609;-75
2022/08/05 10:43:19;;;;;;;4.00;3.70;;;30.60;56.40;;;;;;5019471;28;21158;-76
2022/08/05 10:45:56;;;;;;;3.90;3.60;;;30.60;56.60;;;;;;5019887;28;20422;-76
2022/08/05 10:48:33;;;;;;;4.70;3.73;;;30.60;56.50;;;;;;5023457;28;20437;-76
2022/08/05 10:51:00;;;;;;;3.87;3.57;;;30.70;56.40;;;;;;5026255;28;21295;-75
2022/08/05 10:53:54;;;;;;;4.00;3.70;;;30.70;56.40;;;;;;5023990;28;20501;-75
2022/08/05 10:56:26;;;;;;;4.10;3.77;;;30.70;55.90;;;;;;5017707;28;20508;-76
2022/08/05 10:58:52;;;;;;;4.10;3.80;;;30.70;55.70;;;;;;5025283;28;20434;-75
2022/08/05 11:01:29;;;;;;;5.20;3.80;;;31.10;55.90;;;;;;5019941;28;20432;-75
2022/08/05 11:04:11;;;;;;;4.23;3.83;;;31.10;55.80;;;;;;5018235;28;20212;-73
2022/08/05 11:07:00;;;;;;;3.70;3.40;;;31.20;55.80;;;;;;5022716;28;21111;-76
2022/08/05 11:09:42;;;;;;;4.40;4.10;;;31.30;55.90;;;;;;5007690;28;20440;-75
2022/08/05 11:12:35;;;;;;;4.23;3.83;;;31.40;55.90;;;;;;5024788;28;20426;-75
2022/08/05 11:15:18;;;;;;;4.60;4.00;;;31.50;55.90;;;;;;5017122;28;20488;-75
2022/08/05 11:17:54;;;;;;;4.10;3.60;;;31.60;55.40;;;;;;5033667;28;20850;-75
2022/08/05 11:20:46;;;;;;;4.67;4.20;;;31.60;55.60;;;;;;5024883;28;20446;-75
2022/08/05 11:23:34;;;;;;;4.30;4.00;;;31.70;55.50;;;;;;5026916;28;20462;-75
2022/08/05 11:26:07;;;;;;;3.83;3.53;;;31.90;55.50;;;;;;5022278;28;20425;-75
2022/08/05 11:28:33;;;;;;;5.60;3.93;;;32.00;54.30;;;;;;5025155;28;20446;-75
2022/08/05 11:31:02;;;;;;;4.33;3.80;;;32.10;54.20;;;;;;5032768;28;20957;-75
2022/08/05 11:33:34;;;;;;;4.33;3.80;;;32.00;54.90;;;;;;5022841;28;20187;-75
2022/08/05 11:36:01;;;;;;;4.20;3.80;;;32.00;54.70;;;;;;5025902;28;20555;-75
2022/08/05 11:38:53;;;;;;;4.60;3.70;;;31.90;55.20;;;;;;5026667;28;20510;-75
2022/08/05 11:41:27;;;;;;;4.33;3.93;;;31.90;55.70;;;;;;5012203;28;20450;-74
2022/08/05 11:43:54;;;;;;;3.93;3.63;;;31.80;55.90;;;;;;5024733;28;20557;-75
2022/08/05 11:46:27;;;;;;;4.00;3.70;;;31.90;56.20;;;;;;5026630;28;20462;-75
2022/08/05 11:48:54;;;;;;;4.70;3.67;;;32.10;56.10;;;;;;5018578;28;20401;-75
2022/08/05 11:51:21;;;;;;;5.23;3.60;;;32.10;56.30;;;;;;5028970;28;20803;-75
2022/08/05 11:53:47;;;;;;;3.87;3.57;;;32.20;56.20;;;;;;5032569;28;20393;-75
2022/08/05 11:56:14;;;;;;;5.83;4.10;;;32.30;55.90;;;;;;5022950;28;20533;-76
2022/08/05 11:58:42;;;;;;;4.80;4.40;;;32.40;55.70;;;;;;5028157;28;20416;-75
2022/08/05 12:01:14;;;;;;;4.87;4.47;;;32.70;55.70;;;;;;5023388;28;20446;-75
2022/08/05 12:03:53;;;;;;;5.13;4.10;;;32.90;55.30;;;;;;5026833;28;20556;-74
2022/08/05 12:06:24;;;;;;;4.50;3.97;;;33.10;54.80;;;;;;5028222;28;20454;-76
2022/08/05 12:08:54;;;;;;;4.80;4.17;;;33.20;53.80;;;;;;5023643;28;20386;-75
2022/08/05 12:11:25;;;;;;;4.50;4.10;;;33.30;54.00;;;;;;5021237;28;20427;-76
2022/08/05 12:14:00;;;;;;;3.90;3.60;;;33.80;53.50;;;;;;5026169;28;20409;-76
2022/08/05 12:16:30;;;;;;;4.33;3.93;;;34.30;53.10;;;;;;5022836;28;21590;-75
2022/08/05 12:18:56;;;;;;;4.30;4.00;;;34.30;53.00;;;;;;5028557;28;20447;-75
2022/08/05 12:21:32;;;;;;;4.50;4.10;;;34.80;51.60;;;;;;5029325;28;20417;-75
2022/08/05 12:24:07;;;;;;;7.20;4.60;;;34.90;51.10;;;;;;5024920;28;20706;-75
2022/08/05 12:26:35;;;;;;;4.40;4.00;;;34.90;51.00;;;;;;5023827;28;20501;-75
2022/08/05 12:29:05;;;;;;;4.40;4.00;;;35.00;51.00;;;;;;5028744;28;20422;-75
2022/08/05 12:31:33;;;;;;;6.30;4.10;;;35.40;50.50;;;;;;5025528;28;20482;-75
2022/08/05 12:34:04;;;;;;;4.73;4.20;;;35.40;50.40;;;;;;5028749;28;20442;-75
2022/08/05 12:36:31;;;;;;;4.30;3.90;;;35.40;50.40;;;;;;5024978;28;20856;-75
2022/08/05 12:38:57;;;;;;;5.50;3.40;;;35.40;50.20;;;;;;5018593;28;20435;-75
2022/08/05 12:41:30;;;;;;;4.50;4.10;;;35.60;50.20;;;;;;5018943;28;20455;-74
2022/08/05 12:44:01;;;;;;;5.77;4.13;;;35.70;50.20;;;;;;5023963;28;20528;-75
2022/08/05 12:46:29;;;;;;;4.27;3.87;;;35.80;50.00;;;;;;5021314;28;20554;-75
2022/08/05 12:49:06;;;;;;;6.00;3.73;;;36.00;49.80;;;;;;5014890;28;20501;-74
2022/08/05 12:51:45;;;;;;;3.73;3.47;;;35.90;49.50;;;;;;5019118;28;20415;-75
2022/08/05 12:54:24;;;;;;;4.30;3.97;;;35.60;49.60;;;;;;5016151;28;20999;-75
2022/08/05 12:57:01;;;;;;;4.07;3.77;;;35.90;49.60;;;;;;5021732;28;20418;-75
2022/08/05 12:59:28;;;;;;;4.20;3.67;;;36.00;49.50;;;;;;5022338;28;20425;-75